Time;durP1;ratioP1;P1;durP2;ratioP2;P2;SDS_P1;SDS_P2;PMS_P1;PMS_P2;Temp;Humidity;BMP_temperature;BMP_pressure;BME280_temperature;BME280_humidity;BME280_pressure;Samples;Min_cycle;Max_cycle;Signal;HPM_P1;HPM_P2
2022/04/25 00:01:37;;;;;;;10.57;4.70;;;;;;;11.54;59.56;100790.03;5073199;28;20024;-60
2022/04/25 00:04:03;;;;;;;7.45;4.75;;;;;;;11.54;59.52;100783.84;5073074;28;20024;-61
2022/04/25 00:06:30;;;;;;;12.55;5.10;;;;;;;11.44;60.10;100785.56;5072870;28;20032;-61
2022/04/25 00:08:56;;;;;;;10.05;4.88;;;;;;;11.44;59.71;100787.34;5073192;28;20032;-61
2022/04/25 00:11:21;;;;;;;9.13;5.07;;;;;;;11.40;60.02;100788.19;5073066;28;20477;-61
2022/04/25 00:13:47;;;;;;;8.25;4.80;;;;;;;11.39;60.07;100784.66;5072985;28;20031;-61
2022/04/25 00:16:13;;;;;;;9.20;4.85;;;;;;;11.39;59.71;100784.66;5054989;28;20021;-61
2022/04/25 00:18:39;;;;;;;9.07;5.00;;;;;;;11.39;60.12;100789.97;5073097;28;20049;-60
2022/04/25 00:21:04;;;;;;;7.25;4.70;;;;;;;11.33;60.17;100795.19;5072695;28;20025;-60
2022/04/25 00:23:30;;;;;;;9.55;5.15;;;;;;;11.34;59.55;100794.31;5072843;28;20127;-60
2022/04/25 00:25:55;;;;;;;9.23;4.97;;;;;;;11.31;59.77;100794.31;5072703;28;20029;-61
2022/04/25 00:28:21;;;;;;;9.02;4.90;;;;;;;11.33;59.58;100796.94;5072849;28;20086;-60
2022/04/25 00:30:49;;;;;;;9.30;5.03;;;;;;;11.34;60.07;100791.66;5072924;28;20024;-60
2022/04/25 00:33:15;;;;;;;7.75;4.82;;;;;;;11.23;60.03;100788.06;5072721;28;20029;-60
2022/04/25 00:35:42;;;;;;;9.32;5.20;;;;;;;11.13;60.17;100797.69;5072582;28;20024;-60
2022/04/25 00:38:09;;;;;;;9.38;4.90;;;;;;;11.13;60.87;100786.22;5054623;28;20031;-60
2022/04/25 00:40:34;;;;;;;9.25;5.30;;;;;;;11.13;60.18;100804.72;5072943;28;20025;-60
2022/04/25 00:43:00;;;;;;;8.85;4.72;;;;;;;11.11;60.18;100793.28;5072600;28;20016;-60
2022/04/25 00:45:25;;;;;;;8.25;5.00;;;;;;;11.07;60.05;100794.13;5072782;28;20021;-60
2022/04/25 00:47:50;;;;;;;7.72;4.90;;;;;;;11.00;60.61;100796.69;5072676;28;20028;-61
2022/04/25 00:50:16;;;;;;;11.80;5.15;;;;;;;10.97;60.44;100791.41;5072507;28;20033;-61
2022/04/25 00:52:42;;;;;;;8.07;5.13;;;;;;;10.95;60.46;100785.19;5072632;28;20020;-60
2022/04/25 00:55:09;;;;;;;11.35;5.22;;;;;;;10.82;61.01;100787.72;5072731;28;20051;-60
2022/04/25 00:57:36;;;;;;;8.80;5.25;;;;;;;10.84;61.03;100799.22;5072454;28;20117;-60
2022/04/25 01:00:05;;;;;;;8.30;4.88;;;;;;;10.86;60.70;100794.81;5072644;28;20093;-60
2022/04/25 01:02:30;;;;;;;9.55;5.30;;;;;;;10.80;61.52;100794.78;5073275;28;20116;-60
2022/04/25 01:04:56;;;;;;;8.52;5.40;;;;;;;10.67;61.65;100784.09;5076327;28;20100;-61
2022/04/25 01:07:22;;;;;;;9.60;5.40;;;;;;;10.60;61.84;100787.53;5076049;28;20466;-60
2022/04/25 01:09:47;;;;;;;8.68;5.15;;;;;;;10.61;62.05;100793.69;5076027;28;20029;-60
2022/04/25 01:12:13;;;;;;;9.85;5.35;;;;;;;10.55;62.28;100797.19;5076076;28;20021;-60
2022/04/25 01:14:38;;;;;;;10.15;5.80;;;;;;;10.52;62.18;100787.47;5076056;28;20039;-60
2022/04/25 01:17:04;;;;;;;11.65;5.43;;;;;;;10.47;62.19;100783.88;5075849;28;20028;-60
2022/04/25 01:19:30;;;;;;;8.10;5.45;;;;;;;10.47;62.64;100790.94;5075824;28;20094;-60
2022/04/25 01:22:04;;;;;;;10.73;5.90;;;;;;;10.38;62.54;100791.72;5075969;28;20030;-60
2022/04/25 01:27:17;;;;;;;8.73;6.00;;;;;;;10.27;63.03;100790.72;5075470;28;20059;-60
2022/04/25 01:29:53;;;;;;;9.90;5.50;;;;;;;10.23;63.21;100787.09;5075824;28;20524;-60
2022/04/25 01:32:21;;;;;;;11.48;5.70;;;;;;;10.22;63.17;100792.38;5075566;28;20111;-61
2022/04/25 01:34:47;;;;;;;8.55;5.80;;;;;;;10.19;63.36;100793.25;5075795;28;20029;-60
2022/04/25 01:37:17;;;;;;;13.38;5.97;;;;;;;10.14;63.43;100789.66;5075427;28;20397;-60
2022/04/25 01:39:48;;;;;;;9.63;6.10;;;;;;;10.22;63.10;100793.25;5075565;28;20028;-60
2022/04/25 01:42:14;;;;;;;8.80;5.63;;;;;;;10.11;63.62;100788.75;5075744;28;20052;-60
2022/04/25 01:44:40;;;;;;;9.73;5.53;;;;;;;10.06;63.40;100793.06;5075471;28;20073;-60
2022/04/25 01:47:06;;;;;;;11.07;6.10;;;;;;;10.08;63.40;100796.63;5075263;28;20017;-61
2022/04/25 01:49:36;;;;;;;15.35;6.30;;;;;;;10.01;64.15;100793.00;5075506;28;20060;-60
2022/04/25 01:52:06;;;;;;;9.40;5.70;;;;;;;10.03;63.55;100796.56;5075596;28;20415;-60
2022/04/25 01:54:32;;;;;;;10.45;6.05;;;;;;;10.04;63.65;100799.22;5075328;28;20021;-60
2022/04/25 01:56:58;;;;;;;10.65;5.80;;;;;;;9.99;63.83;100795.66;5075223;28;20032;-60
2022/04/25 01:59:24;;;;;;;11.07;5.75;;;;;;;9.96;63.97;100794.72;5075185;28;20029;-60
2022/04/25 02:01:51;;;;;;;8.57;5.70;;;;;;;9.99;63.62;100798.28;5074980;28;20442;-60
2022/04/25 02:04:16;;;;;;;10.25;6.10;;;;;;;10.08;63.48;100794.88;5075421;28;20028;-60
2022/04/25 02:06:42;;;;;;;11.07;6.32;;;;;;;9.99;64.17;100789.50;5075130;28;20385;-60
2022/04/25 02:09:08;;;;;;;11.50;6.30;;;;;;;9.99;63.80;100797.41;5075143;28;20071;-60
2022/04/25 02:11:34;;;;;;;10.60;6.05;;;;;;;9.87;64.41;100792.84;5074998;28;20456;-60
2022/04/25 02:14:00;;;;;;;8.85;6.20;;;;;;;9.83;64.47;100791.03;5074720;28;20029;-60
2022/04/25 02:16:25;;;;;;;11.02;6.65;;;;;;;9.76;64.76;100786.53;5075109;28;20029;-60
2022/04/25 02:18:52;;;;;;;12.02;6.38;;;;;;;9.77;64.47;100790.97;5075134;28;20043;-60
2022/04/25 02:21:18;;;;;;;11.00;6.55;;;;;;;9.69;65.06;100789.97;5076724;28;20048;-60
2022/04/25 02:23:44;;;;;;;12.27;6.80;;;;;;;9.71;64.86;100788.22;5077010;28;20462;-60
2022/04/25 02:26:09;;;;;;;10.50;6.18;;;;;;;9.71;64.83;100793.50;5074876;28;20124;-60
2022/04/25 02:28:36;;;;;;;8.95;6.15;;;;;;;9.66;64.65;100792.56;5074657;28;20081;-60
2022/04/25 02:31:04;;;;;;;10.98;6.55;;;;;;;9.57;65.53;100782.78;5074675;28;20025;-60
2022/04/25 02:33:30;;;;;;;10.00;6.43;;;;;;;9.48;65.63;100785.28;5074595;28;20029;-61
2022/04/25 02:35:55;;;;;;;10.35;6.53;;;;;;;9.42;65.94;100791.38;5074569;28;20094;-60
2022/04/25 02:38:21;;;;;;;11.68;6.57;;;;;;;9.44;65.89;100787.00;5074331;28;20040;-60
2022/04/25 02:40:46;;;;;;;11.15;6.68;;;;;;;9.46;65.66;100787.91;5074242;28;20025;-60
2022/04/25 02:43:12;;;;;;;12.48;6.97;;;;;;;9.47;65.30;100784.41;5074309;28;20040;-60
2022/04/25 02:45:37;;;;;;;10.40;6.55;;;;;;;9.51;65.31;100782.72;5074336;28;20024;-60
2022/04/25 02:48:03;;;;;;;13.00;6.82;;;;;;;9.51;65.35;100787.97;5073549;28;20036;-59
2022/04/25 02:50:29;;;;;;;12.18;6.68;;;;;;;9.43;65.96;100784.34;5073634;28;20441;-59
2022/04/25 02:52:56;;;;;;;11.38;6.60;;;;;;;9.37;66.05;100787.75;5073371;28;20481;-59
2022/04/25 02:55:21;;;;;;;9.85;6.60;;;;;;;9.28;66.09;100783.22;5073603;28;20052;-59
2022/04/25 02:57:46;;;;;;;13.73;6.97;;;;;;;9.23;66.78;100794.59;5073879;28;20067;-60
2022/04/25 03:00:12;;;;;;;14.02;7.05;;;;;;;9.25;66.68;100785.84;5074266;28;20036;-60
2022/04/25 03:02:38;;;;;;;12.05;7.18;;;;;;;9.26;66.47;100784.97;5073731;28;20078;-60
2022/04/25 03:05:04;;;;;;;12.23;7.00;;;;;;;9.35;66.07;100786.88;5056112;28;20024;-60
2022/04/25 03:07:29;;;;;;;12.30;7.13;;;;;;;9.21;66.70;100786.66;5073884;28;20056;-60
2022/04/25 03:09:55;;;;;;;11.90;7.00;;;;;;;9.23;66.58;100786.69;5073815;28;20055;-60
2022/04/25 03:12:21;;;;;;;11.15;7.63;;;;;;;9.16;66.77;100796.22;5073866;28;20436;-60
2022/04/25 03:14:46;;;;;;;14.25;7.18;;;;;;;9.13;67.31;100792.69;5073769;28;20033;-60
2022/04/25 03:17:12;;;;;;;12.60;7.38;;;;;;;9.18;67.04;100783.09;5073569;28;20028;-60
2022/04/25 03:19:38;;;;;;;12.40;7.10;;;;;;;9.17;67.09;100791.88;5073493;28;20107;-60
2022/04/25 03:22:04;;;;;;;10.45;6.82;;;;;;;9.21;66.83;100799.84;5073585;28;20032;-61
2022/04/25 03:24:30;;;;;;;10.93;7.20;;;;;;;9.32;66.31;100793.84;5073250;28;20036;-60
2022/04/25 03:26:56;;;;;;;12.77;7.25;;;;;;;9.26;65.94;100786.72;5072823;28;20048;-60
2022/04/25 03:29:22;;;;;;;11.57;7.32;;;;;;;9.24;66.43;100796.34;5073755;28;20511;-60
2022/04/25 03:31:47;;;;;;;12.32;7.18;;;;;;;9.22;66.23;100795.47;5073357;28;20055;-60
2022/04/25 03:34:12;;;;;;;10.90;6.65;;;;;;;9.13;66.95;100801.47;5073284;28;20059;-60
2022/04/25 03:36:38;;;;;;;12.60;7.15;;;;;;;9.10;66.93;100800.53;5073430;28;20381;-60
2022/04/25 03:39:03;;;;;;;11.05;7.03;;;;;;;9.05;67.35;100797.81;5073374;28;20465;-60
2022/04/25 03:41:31;;;;;;;12.88;7.22;;;;;;;9.07;66.80;100798.72;5073460;28;20382;-60
2022/04/25 03:43:56;;;;;;;12.73;6.72;;;;;;;9.12;66.94;100797.06;5073433;28;20028;-60
2022/04/25 03:46:22;;;;;;;10.52;7.07;;;;;;;9.13;66.18;100800.59;5073316;28;20035;-60
2022/04/25 03:48:47;;;;;;;12.38;7.53;;;;;;;9.12;66.59;100798.78;5073150;28;20377;-61
2022/04/25 03:51:12;;;;;;;11.38;7.35;;;;;;;9.19;66.72;100803.31;5073408;28;20028;-60
2022/04/25 03:53:39;;;;;;;11.30;7.10;;;;;;;9.15;66.40;100797.09;5073214;28;20458;-60
2022/04/25 03:58:48;;;;;;;11.02;7.18;;;;;;;9.09;66.80;100801.41;5072976;28;20032;-60
2022/04/25 04:01:14;;;;;;;10.82;7.55;;;;;;;9.05;67.24;100811.00;5073155;28;20025;-60
2022/04/25 04:03:39;;;;;;;10.32;7.25;;;;;;;9.05;66.65;100810.13;5072815;28;20021;-60
2022/04/25 04:06:05;;;;;;;10.57;7.32;;;;;;;9.05;66.98;100805.72;5073037;28;20028;-60
2022/04/25 04:08:36;;;;;;;14.07;7.65;;;;;;;8.98;67.23;100810.00;5055045;28;20054;-60
2022/04/25 04:11:04;;;;;;;10.10;7.10;;;;;;;8.98;67.93;100812.63;5073258;28;20021;-60
2022/04/25 04:13:30;;;;;;;12.90;8.00;;;;;;;8.94;67.35;100812.56;5055217;28;20116;-60
2022/04/25 04:15:56;;;;;;;15.25;7.95;;;;;;;8.90;67.50;100810.75;5073207;28;20525;-60
2022/04/25 04:18:23;;;;;;;13.70;7.85;;;;;;;8.87;68.27;100818.63;5072592;28;20552;-60
2022/04/25 04:20:48;;;;;;;11.57;7.80;;;;;;;8.75;67.75;100816.66;5072786;28;20432;-60
2022/04/25 04:23:14;;;;;;;12.70;8.30;;;;;;;8.67;69.21;100828.78;5072653;28;20024;-60
2022/04/25 04:25:40;;;;;;;12.80;7.63;;;;;;;8.64;69.36;100823.47;5072313;28;20035;-60
2022/04/25 04:28:06;;;;;;;13.90;7.95;;;;;;;8.58;69.29;100821.59;5072018;28;20048;-60
2022/04/25 04:30:32;;;;;;;12.63;7.60;;;;;;;8.60;69.10;100826.88;5072305;28;20110;-60
2022/04/25 04:32:57;;;;;;;14.98;8.23;;;;;;;8.71;68.71;100822.72;5071960;28;20032;-61
2022/04/25 04:38:06;;;;;;;13.43;8.32;;;;;;;8.66;69.03;100829.66;5075646;28;20485;-61
2022/04/25 04:40:32;;;;;;;13.27;7.93;;;;;;;8.71;69.07;100836.78;5076377;28;20020;-60
2022/04/25 04:42:58;;;;;;;17.23;8.90;;;;;;;8.67;69.21;100845.47;5076014;28;20073;-60
2022/04/25 04:45:23;;;;;;;16.63;8.90;;;;;;;8.56;69.18;100840.88;5076075;28;20031;-60
2022/04/25 04:47:49;;;;;;;11.10;8.07;;;;;;;8.61;69.71;100839.19;5075733;28;20103;-61
2022/04/25 04:50:16;;;;;;;17.80;8.52;;;;;;;8.59;69.79;100841.81;5075969;28;20534;-60
2022/04/25 04:52:45;;;;;;;13.77;8.45;;;;;;;8.56;69.32;100846.13;5075944;28;20462;-60
2022/04/25 04:55:12;;;;;;;16.00;8.35;;;;;;;8.59;69.34;100849.72;5075920;28;20024;-60
2022/04/25 04:57:38;;;;;;;14.15;8.65;;;;;;;8.56;69.91;100847.00;5075675;28;20035;-60
2022/04/25 05:00:09;;;;;;;17.73;9.65;;;;;;;8.59;69.78;100854.97;5075958;28;20027;-60
2022/04/25 05:02:35;;;;;;;16.90;8.57;;;;;;;8.66;70.34;100854.25;5075625;28;20482;-60
2022/04/25 05:05:01;;;;;;;15.57;8.68;;;;;;;8.71;70.15;100855.22;5075628;28;20028;-60
2022/04/25 05:07:27;;;;;;;13.02;8.27;;;;;;;8.75;70.32;100864.94;5075759;28;20021;-60
2022/04/25 05:09:52;;;;;;;12.63;9.10;;;;;;;8.81;70.08;100868.56;5075769;28;20108;-60
2022/04/25 05:12:21;;;;;;;20.58;9.05;;;;;;;8.81;70.14;100868.56;5075494;28;20508;-60
2022/04/25 05:14:47;;;;;;;14.65;9.32;;;;;;;8.73;71.40;100874.56;5075623;28;20389;-60
2022/04/25 05:17:12;;;;;;;15.68;9.27;;;;;;;8.78;71.25;100887.84;5075200;28;20475;-60
2022/04/25 05:19:38;;;;;;;15.60;9.05;;;;;;;8.77;71.64;100860.56;5075326;28;20100;-60
2022/04/25 05:22:04;;;;;;;14.00;9.10;;;;;;;8.87;71.83;100876.59;5075385;28;20466;-60
2022/04/25 05:24:29;;;;;;;15.70;9.45;;;;;;;8.89;71.93;100870.47;5075405;28;20024;-60
2022/04/25 05:26:56;;;;;;;16.25;8.85;;;;;;;8.91;72.04;100881.94;5075146;28;20154;-60
2022/04/25 05:29:21;;;;;;;16.10;9.30;;;;;;;8.91;72.46;100874.03;5075181;28;20028;-60
2022/04/25 05:31:49;;;;;;;14.82;9.18;;;;;;;9.03;72.22;100890.03;5074916;28;20035;-61
2022/04/25 05:34:15;;;;;;;13.73;9.50;;;;;;;9.07;72.00;100877.78;5075307;28;20047;-60
2022/04/25 05:36:41;;;;;;;18.60;9.98;;;;;;;9.09;71.95;100884.00;5060804;28;20377;-60
2022/04/25 05:39:07;;;;;;;17.30;9.40;;;;;;;9.12;72.32;100885.78;5077376;28;20039;-60
2022/04/25 05:41:34;;;;;;;14.73;9.82;;;;;;;9.13;72.39;100888.47;5075802;28;20036;-60
2022/04/25 05:44:00;;;;;;;14.68;9.60;;;;;;;9.16;72.30;100895.53;5075594;28;20367;-60
2022/04/25 05:46:25;;;;;;;21.73;9.77;;;;;;;9.20;73.09;100900.00;5074801;28;20453;-60
2022/04/25 05:54:19;;;;;;;17.48;10.85;;;;;;;9.29;72.78;100910.69;5074840;28;20394;-60
2022/04/25 05:56:44;;;;;;;16.67;10.00;;;;;;;9.34;72.47;100909.03;5074679;28;20028;-60
2022/04/25 05:59:10;;;;;;;15.68;9.73;;;;;;;9.43;72.60;100911.81;5074293;28;20032;-61
2022/04/25 06:01:35;;;;;;;16.55;10.68;;;;;;;9.49;72.70;100917.19;5074908;28;20389;-60
2022/04/25 06:04:01;;;;;;;15.43;11.00;;;;;;;9.55;72.36;100919.06;5074758;28;20432;-60
2022/04/25 06:06:26;;;;;;;14.75;10.13;;;;;;;9.60;72.30;100912.09;5074561;28;20466;-60
2022/04/25 06:08:52;;;;;;;20.33;10.70;;;;;;;9.65;72.28;100914.81;5074362;28;20077;-60
2022/04/25 06:11:18;;;;;;;16.45;11.32;;;;;;;9.66;72.68;100921.84;5074722;28;20036;-60
2022/04/25 06:13:44;;;;;;;20.13;11.30;;;;;;;9.68;72.39;100921.03;5074153;28;20477;-61
2022/04/25 06:16:11;;;;;;;16.88;10.88;;;;;;;9.68;73.02;100928.06;5074501;28;20090;-60
2022/04/25 06:18:36;;;;;;;17.67;11.05;;;;;;;9.80;72.64;100922.94;5074217;28;20103;-60
2022/04/25 06:21:02;;;;;;;18.00;10.68;;;;;;;9.83;72.81;100925.63;5074251;28;20132;-60
2022/04/25 06:23:27;;;;;;;15.07;10.70;;;;;;;9.86;72.53;100919.53;5074131;28;20059;-60
2022/04/25 06:25:53;;;;;;;16.58;10.60;;;;;;;9.94;72.17;100917.88;5074192;28;20111;-60
2022/04/25 06:28:18;;;;;;;20.70;11.93;;;;;;;9.96;72.32;100918.78;5073895;28;20075;-60
2022/04/25 06:30:44;;;;;;;20.95;12.10;;;;;;;10.06;72.83;100917.16;5073816;28;20121;-60
2022/04/25 06:33:09;;;;;;;16.73;11.45;;;;;;;10.21;72.75;100918.25;5074199;28;20393;-60
2022/04/25 06:35:35;;;;;;;18.77;11.32;;;;;;;10.35;72.46;100913.19;5074015;28;20036;-60
2022/04/25 06:38:00;;;;;;;20.27;12.23;;;;;;;10.48;72.61;100922.16;5073959;28;20024;-60
2022/04/25 06:40:26;;;;;;;19.00;12.20;;;;;;;10.59;71.88;100922.28;5074038;28;20063;-60
2022/04/25 06:42:53;;;;;;;21.80;12.30;;;;;;;10.70;71.94;100928.56;5073769;28;20478;-60
2022/04/25 06:45:19;;;;;;;18.42;12.55;;;;;;;10.77;71.20;100941.00;5055486;28;20020;-61
2022/04/25 06:47:44;;;;;;;20.77;12.05;;;;;;;10.81;70.76;100940.16;5073690;28;20023;-60
2022/04/25 06:50:11;;;;;;;22.30;12.80;;;;;;;10.87;70.39;100939.34;5073730;28;20507;-60
2022/04/25 06:52:36;;;;;;;19.80;12.75;;;;;;;10.86;70.04;100941.09;5073776;28;20021;-60
2022/04/25 06:55:04;;;;;;;20.83;12.38;;;;;;;10.93;70.48;100944.72;5073502;28;20536;-60
2022/04/25 06:57:33;;;;;;;17.40;11.90;;;;;;;10.98;69.70;100949.16;5073672;28;20389;-60
2022/04/25 07:00:01;;;;;;;20.17;12.27;;;;;;;10.95;69.74;100941.19;5073625;28;20035;-61
2022/04/25 07:02:27;;;;;;;17.95;11.60;;;;;;;10.91;69.70;100934.09;5073363;28;20451;-60
2022/04/25 07:04:53;;;;;;;18.55;11.73;;;;;;;10.84;69.98;100937.56;5073401;28;20044;-60
2022/04/25 07:07:19;;;;;;;20.90;12.43;;;;;;;10.76;70.02;100945.41;5073126;28;20497;-60
2022/04/25 07:09:45;;;;;;;23.30;11.65;;;;;;;10.69;70.43;100942.66;5073444;28;20024;-60
2022/04/25 07:12:11;;;;;;;16.42;11.85;;;;;;;10.74;70.39;100938.31;5073267;28;20071;-60
2022/04/25 07:14:37;;;;;;;17.77;11.95;;;;;;;10.74;70.63;100940.94;5073086;28;20485;-61
2022/04/25 07:17:03;;;;;;;21.60;12.85;;;;;;;10.74;70.25;100936.53;5073273;28;20078;-60
2022/04/25 07:19:28;;;;;;;17.40;12.20;;;;;;;10.83;70.26;100948.09;5073403;28;20395;-60
2022/04/25 07:30:06;;;;;;;18.08;11.77;;;;;;;10.71;70.54;100955.03;5073279;28;20043;-60
2022/04/25 07:32:39;;;;;;;23.20;13.30;;;;;;;10.72;70.63;100953.28;5072790;28;20024;-61
2022/04/25 07:35:09;;;;;;;20.48;12.73;;;;;;;10.73;70.29;100957.69;5072939;28;20052;-60
2022/04/25 07:37:34;;;;;;;16.17;12.80;;;;;;;10.74;70.61;100948.88;5073092;28;20056;-61
2022/04/25 07:40:02;;;;;;;18.58;13.02;;;;;;;10.74;70.65;100960.34;5072584;28;20051;-61
2022/04/25 07:42:29;;;;;;;21.60;12.95;;;;;;;10.66;70.45;100962.03;5073028;28;20039;-60
2022/04/25 07:44:55;;;;;;;19.52;13.13;;;;;;;10.65;70.61;100973.44;5072791;28;20063;-61
2022/04/25 07:47:26;;;;;;;22.83;14.23;;;;;;;10.63;70.99;100975.19;5072724;28;20033;-61
2022/04/25 07:49:51;;;;;;;16.80;13.35;;;;;;;10.55;71.75;100970.69;5072967;28;20029;-61
2022/04/25 07:52:17;;;;;;;18.25;13.95;;;;;;;10.53;71.90;100984.75;5072744;28;20146;-61
2022/04/25 07:54:43;;;;;;;20.13;12.90;;;;;;;10.51;72.44;100981.19;5072377;28;20116;-61
2022/04/25 07:57:08;;;;;;;19.05;14.40;;;;;;;10.54;72.63;100983.00;5072824;28;20104;-61
2022/04/25 07:59:34;;;;;;;20.38;13.55;;;;;;;10.55;73.13;100990.06;5072333;28;20033;-60
2022/04/25 08:02:02;;;;;;;21.63;14.20;;;;;;;10.56;73.57;100993.59;5071160;28;20032;-61
2022/04/25 08:04:27;;;;;;;22.73;14.88;;;;;;;10.48;73.97;100981.16;5054541;28;20016;-61
2022/04/25 08:06:53;;;;;;;23.33;15.18;;;;;;;10.48;74.70;100994.34;5072667;28;20033;-62
2022/04/25 08:09:19;;;;;;;23.85;15.18;;;;;;;10.49;75.09;100992.59;5071914;28;20016;-63
2022/04/25 08:11:44;;;;;;;19.02;14.95;;;;;;;10.49;75.92;101000.53;5072148;28;20426;-62
2022/04/25 08:19:41;;;;;;;23.25;14.80;;;;;;;10.41;76.18;100999.56;4952042;29;20129;-63
2022/04/25 08:22:09;;;;;;;22.52;14.60;;;;;;;10.43;76.26;101011.91;4952144;29;20126;-62
2022/04/25 08:24:36;;;;;;;24.02;16.02;;;;;;;10.47;76.50;101015.50;4952017;29;20496;-62
2022/04/25 08:27:05;;;;;;;27.00;17.42;;;;;;;10.48;76.48;101014.63;4951587;29;20412;-63
2022/04/25 08:29:32;;;;;;;23.10;16.23;;;;;;;10.55;76.40;101015.59;4952090;29;20135;-64
2022/04/25 08:31:58;;;;;;;24.58;15.98;;;;;;;10.58;76.34;101005.97;4952036;29;20054;-64
2022/04/25 08:34:24;;;;;;;24.80;15.70;;;;;;;10.56;76.19;101022.66;4952027;29;20047;-64
2022/04/25 08:36:49;;;;;;;23.77;16.70;;;;;;;10.59;76.13;101023.59;4951539;29;20048;-65
2022/04/25 08:39:15;;;;;;;22.67;15.07;;;;;;;10.60;76.51;101020.06;4951341;29;20035;-64
2022/04/25 08:41:45;;;;;;;20.45;15.00;;;;;;;10.60;76.34;101028.00;4951281;29;20047;-63
2022/04/25 08:44:24;;;;;;;20.88;15.27;;;;;;;10.58;76.50;101016.53;4951139;29;20433;-64
2022/04/25 08:46:52;;;;;;;22.75;15.60;;;;;;;10.63;76.20;101029.81;4951753;29;20051;-64
2022/04/25 08:49:18;;;;;;;25.48;16.00;;;;;;;10.59;76.21;101034.16;4952285;29;20460;-64
2022/04/25 08:51:47;;;;;;;22.95;15.02;;;;;;;10.60;76.75;101033.28;4957237;29;20027;-64
2022/04/25 08:54:13;;;;;;;23.08;15.50;;;;;;;10.63;76.57;101035.97;5025766;28;20043;-65
2022/04/25 08:56:41;;;;;;;25.60;16.55;;;;;;;10.64;77.12;101042.16;5072053;28;20481;-65
2022/04/25 08:59:08;;;;;;;21.90;15.57;;;;;;;10.66;77.20;101038.66;5071702;28;20028;-64
2022/04/25 09:01:35;;;;;;;21.75;15.38;;;;;;;10.69;77.29;101041.31;5072003;28;20103;-64
2022/04/25 09:04:01;;;;;;;21.13;15.07;;;;;;;10.69;76.64;101037.81;5071498;28;20495;-64
2022/04/25 09:06:28;;;;;;;23.30;16.30;;;;;;;10.76;76.82;101048.47;5072006;28;20028;-64
2022/04/25 09:08:54;;;;;;;21.98;15.85;;;;;;;10.81;76.09;101056.47;5071725;28;20047;-64
2022/04/25 09:14:04;;;;;;;24.33;16.58;;;;;;;10.82;77.05;101055.59;5071783;28;20531;-64
2022/04/25 09:16:30;;;;;;;25.23;16.23;;;;;;;10.82;76.82;101063.53;5053513;28;20311;-64
2022/04/25 09:18:55;;;;;;;22.55;16.40;;;;;;;10.80;76.77;101060.00;5071965;28;20035;-64
2022/04/25 09:21:21;;;;;;;21.17;15.68;;;;;;;10.80;76.60;101065.28;5071657;28;20389;-64
2022/04/25 09:23:52;;;;;;;25.40;17.45;;;;;;;10.87;75.72;101061.81;5072785;28;20105;-65
2022/04/25 09:26:20;;;;;;;23.95;16.48;;;;;;;10.83;75.56;101065.28;5075213;28;20485;-64
2022/04/25 09:28:57;;;;;;;26.73;18.58;;;;;;;10.77;75.89;101074.03;5074967;28;20080;-64
2022/04/25 09:31:26;;;;;;;22.83;17.33;;;;;;;10.71;76.23;101070.44;5074965;28;20508;-64
2022/04/25 09:33:52;;;;;;;31.92;19.80;;;;;;;10.72;76.95;101073.09;5057246;28;20048;-65
2022/04/25 09:36:18;;;;;;;25.02;16.80;;;;;;;10.72;76.38;101073.09;5075039;28;20122;-65
2022/04/25 09:38:45;;;;;;;23.08;15.75;;;;;;;10.81;77.12;101076.72;5075180;28;20052;-65
2022/04/25 09:41:17;;;;;;;19.92;15.60;;;;;;;10.80;76.53;101075.84;5074902;28;20025;-63
2022/04/25 09:43:44;;;;;;;19.50;15.47;;;;;;;10.79;75.89;101074.03;5074649;28;20029;-63
2022/04/25 09:46:12;;;;;;;18.63;14.05;;;;;;;10.80;75.87;101081.13;5074810;28;20025;-61
2022/04/25 09:48:41;;;;;;;18.55;14.55;;;;;;;10.80;75.78;101089.06;5074914;28;20036;-62
2022/04/25 09:51:09;;;;;;;18.75;13.45;;;;;;;10.82;76.19;101081.16;5074805;28;20056;-62
2022/04/25 09:53:50;;;;;;;16.42;12.85;;;;;;;10.91;75.29;101083.91;5074706;28;20082;-62
2022/04/25 09:56:20;;;;;;;18.77;13.70;;;;;;;10.88;75.54;101092.69;5074559;28;20494;-63
2022/04/25 09:59:08;;;;;;;17.65;13.05;;;;;;;10.91;75.84;101097.13;5074469;28;20094;-63
2022/04/25 10:01:39;;;;;;;16.98;14.48;;;;;;;10.80;74.91;101096.09;5074639;28;20122;-63
2022/04/25 10:04:06;;;;;;;16.88;12.43;;;;;;;10.76;74.97;101093.41;5074521;28;20078;-63
2022/04/25 10:06:34;;;;;;;17.05;13.57;;;;;;;10.77;75.73;101104.88;5074407;28;20033;-63
2022/04/25 10:09:05;;;;;;;17.05;13.32;;;;;;;10.80;75.32;101101.41;5074405;28;20025;-62
2022/04/25 10:11:39;;;;;;;16.13;13.77;;;;;;;10.77;75.47;101104.88;5074387;28;20028;-62
2022/04/25 10:14:05;;;;;;;15.23;13.02;;;;;;;10.74;74.97;101103.06;5074359;28;20107;-62
2022/04/25 10:16:34;;;;;;;17.02;13.90;;;;;;;10.81;76.84;101100.53;5074646;28;20116;-62
2022/04/25 10:18:59;;;;;;;19.33;15.13;;;;;;;10.80;75.90;101109.31;5074013;28;20031;-63
2022/04/25 10:21:29;;;;;;;18.05;14.18;;;;;;;10.82;76.07;101113.75;5074166;28;20021;-62
2022/04/25 10:23:57;;;;;;;20.73;15.20;;;;;;;10.87;76.32;101106.75;5073994;28;20024;-62
2022/04/25 10:26:28;;;;;;;21.55;14.75;;;;;;;10.94;76.61;101108.63;5074070;28;20020;-62
2022/04/25 10:28:59;;;;;;;20.42;14.80;;;;;;;10.96;76.93;101116.56;5073831;28;20052;-62
2022/04/25 10:31:27;;;;;;;17.33;14.10;;;;;;;10.99;77.01;101112.22;5073856;28;20065;-62
2022/04/25 10:33:54;;;;;;;19.17;14.75;;;;;;;11.03;77.05;101115.81;5074137;28;20024;-62
2022/04/25 10:36:43;;;;;;;17.95;14.40;;;;;;;11.08;76.85;101110.56;5073459;28;20078;-63
2022/04/25 10:39:24;;;;;;;19.25;14.48;;;;;;;11.04;75.68;101123.75;5073812;28;20563;-62
2022/04/25 10:44:43;;;;;;;16.33;13.05;;;;;;;10.99;76.33;101132.50;5073896;28;20039;-62
2022/04/25 10:47:09;;;;;;;20.90;15.40;;;;;;;11.00;75.10;101127.22;5073844;28;20081;-62
2022/04/25 10:49:47;;;;;;;22.65;16.05;;;;;;;11.01;75.19;101125.47;5073801;28;20401;-62
2022/04/25 10:55:19;;;;;;;18.45;13.90;;;;;;;11.09;75.40;101141.44;5073399;28;20033;-62
2022/04/25 10:58:03;;;;;;;16.60;12.35;;;;;;;11.10;75.13;101137.94;5073319;28;20032;-62
2022/04/25 11:00:40;;;;;;;17.90;13.20;;;;;;;11.08;75.10;101137.91;5073245;28;20528;-62
2022/04/25 11:03:06;;;;;;;18.98;13.18;;;;;;;11.06;75.68;101144.06;5055396;28;20056;-62
2022/04/25 11:05:32;;;;;;;15.35;12.60;;;;;;;11.03;74.62;101139.59;5073138;28;20035;-62
2022/04/25 11:08:16;;;;;;;16.65;13.00;;;;;;;11.07;75.49;101141.41;5073069;28;20029;-62
2022/04/25 11:10:42;;;;;;;16.25;12.60;;;;;;;11.10;75.46;101148.53;5073032;28;20020;-62
2022/04/25 11:13:08;;;;;;;17.45;12.38;;;;;;;11.03;75.16;101142.25;5072986;28;20095;-63
2022/04/25 11:15:43;;;;;;;18.35;13.27;;;;;;;11.06;75.67;101144.94;5072988;28;20477;-62
2022/04/25 11:18:33;;;;;;;16.23;12.70;;;;;;;11.11;75.10;101159.09;5072927;28;20396;-63
2022/04/25 11:21:07;;;;;;;17.23;12.90;;;;;;;11.04;75.73;101149.31;5072894;28;20025;-63
2022/04/25 11:23:44;;;;;;;14.85;12.02;;;;;;;11.10;75.43;101159.97;5072826;28;20020;-63
2022/04/25 11:26:22;;;;;;;17.98;13.13;;;;;;;11.13;76.71;101165.28;5073017;28;20108;-63
2022/04/25 11:29:03;;;;;;;16.95;13.07;;;;;;;11.19;76.45;101162.75;5072421;28;20482;-63
2022/04/25 11:31:30;;;;;;;19.45;13.40;;;;;;;11.25;76.48;101161.94;5072792;28;20044;-64
2022/04/25 11:33:58;;;;;;;18.80;13.70;;;;;;;11.31;76.20;101163.78;5072641;28;20032;-64
2022/04/25 11:36:24;;;;;;;22.50;14.23;;;;;;;11.32;76.50;101171.72;5072649;28;20082;-63
2022/04/25 11:41:37;;;;;;;18.17;14.07;;;;;;;11.43;75.64;101170.09;5072899;28;20051;-63
2022/04/25 11:44:04;;;;;;;19.25;14.35;;;;;;;11.49;75.78;101170.19;5072757;28;20052;-63
2022/04/25 11:46:33;;;;;;;17.63;13.05;;;;;;;11.60;75.20;101180.00;5072147;28;20381;-63
2022/04/25 11:48:59;;;;;;;19.73;14.93;;;;;;;11.64;75.35;101168.56;5072577;28;20107;-63
2022/04/25 11:51:32;;;;;;;20.83;15.07;;;;;;;11.64;75.14;101176.53;5072610;28;20055;-63
2022/04/25 11:54:01;;;;;;;21.77;15.25;;;;;;;11.60;75.28;101172.94;5072347;28;20127;-63
2022/04/25 11:56:28;;;;;;;22.02;14.63;;;;;;;11.62;74.43;101173.88;5072451;28;20482;-63